Airfield :







YOU CAN JOIN US ON...

 
LOGIN :

Register | Disclaimer

   EN    FR    IT 

 









Legend :    VFR   Marginal VFR   IFR   Intensive IFR   Very Intensive IFR
Visi :
Ceiling :
>= 8 km
>= 3000ft
5 to 8 km
1000 to 3000 ft
1500m to 5 km
500 to 1000 ft
800 to 1500m
200 to 500 ft
< 800m
< 200 ft
Symbols :   Thunderstorms  Fog  Heavy snow  Heavy precipitations  Wind > 20 kt






- Airport Elevation : 1825 ft


K8B0 - Steven A. Bean Municipal

CURRENT METAR :
  • 200035Z AUTO 02004KT 7SM -SN OVC021 M13/M16 A2971 RMK AO2

EXPIRED METARs :
  • 200015Z AUTO 33003KT 10SM OVC021 M13/M16 A2971 RMK AO2
  • 192355Z AUTO 35007KT 10SM OVC021 M13/M16 A2970 RMK AO2
  • 192335Z AUTO 00000KT 10SM OVC021 M13/M16 A2968 RMK AO2
  • 192315Z AUTO 00000KT 5SM -SN BKN021 BKN050 M13/M16 A2967 RMK AO2
  • 192255Z AUTO 32006KT 10SM -SN SCT021 SCT050 BKN085 M13/M15 A2966 RMK AO2
  • 192235Z AUTO 32013G22KT 10SM OVC085 M12/M15 A2963 RMK AO2
  • 192215Z AUTO 34013G16KT 10SM -SN OVC085 M12/M15 A2962 RMK AO2
  • 192155Z AUTO 33013G18KT 7SM -SN SCT021 SCT046 OVC085 M11/M13 A2961 RMK AO2

TAF N/A



MET'MAP, your aeronautical weather chart ! - Copyright ORBIFLY December 2007 - Disclaimer

ORBIFLY MET'MAP TEAM :

Programming & Development : Alexandra Zaïnal
Concept & original design : Baudouin d'Aumeries
Assistance for programming : Marc-Olivier Méhu
Technical & hardware support : Manuel Goepfert

Contact : metmap@orbifly.com




SOURCES & CREDITS :

   NOAA